Time;durP1;ratioP1;P1;durP2;ratioP2;P2;SDS_P1;SDS_P2;PMS_P1;PMS_P2;Temp;Humidity;BMP_temperature;BMP_pressure;BME280_temperature;BME280_humidity;BME280_pressure;Samples;Min_cycle;Max_cycle;Signal;HPM_P1;HPM_P2
2023/06/08 00:00:50;;;;;;;;;;;;;;;29.90;30.03;94016.22;4972032;28;7503;-56
2023/06/08 00:03:30;;;;;;;;;;;;;;;29.91;29.78;94020.44;4952969;28;7315;-56
2023/06/08 00:05:59;;;;;;;;;;;;;;;29.89;29.29;94021.00;4956769;28;7055;-57
2023/06/08 00:08:25;;;;;;;;;;;;;;;29.91;29.25;94023.22;4949510;28;9036;-56
2023/06/08 00:10:55;;;;;;;;;;;;;;;29.87;30.36;94020.06;4957618;28;8573;-56
2023/06/08 00:13:21;;;;;;;;;;;;;;;29.88;29.79;94027.84;4925572;28;9044;-56
2023/06/08 00:15:49;;;;;;;;;;;;;;;29.90;29.20;94027.31;4939854;28;7021;-56
2023/06/08 00:18:27;;;;;;;;;;;;;;;29.90;30.02;94016.22;4935450;28;8645;-57
2023/06/08 00:21:00;;;;;;;;;;;;;;;29.90;29.61;94024.53;5005275;28;9239;-56
2023/06/08 00:23:33;;;;;;;;;;;;;;;29.88;29.66;94022.31;5017605;28;8447;-56
2023/06/08 00:26:26;;;;;;;;;;;;;;;29.92;30.19;94027.50;5016566;28;8011;-56
2023/06/08 00:28:52;;;;;;;;;;;;;;;29.90;29.64;94016.22;5018290;28;7288;-56
2023/06/08 00:31:19;;;;;;;;;;;;;;;29.89;29.92;94015.47;5008076;28;7534;-56
2023/06/08 00:33:55;;;;;;;;;;;;;;;29.88;29.88;94005.69;5003413;28;7227;-56
2023/06/08 00:36:32;;;;;;;;;;;;;;;29.87;29.52;94003.44;5005614;28;6875;-56
2023/06/08 00:39:05;;;;;;;;;;;;;;;29.89;29.39;94007.16;5020960;28;7450;-56
2023/06/08 00:41:46;;;;;;;;;;;;;;;29.90;29.92;94007.91;5020058;28;7118;-57
2023/06/08 00:44:12;;;;;;;;;;;;;;;29.87;29.25;94006.19;5004208;28;9067;-56
2023/06/08 00:46:40;;;;;;;;;;;;;;;29.88;30.05;94010.47;5005053;28;8158;-56
2023/06/08 00:49:08;;;;;;;;;;;;;;;29.86;29.24;94002.72;5004016;28;7252;-56
2023/06/08 00:51:53;;;;;;;;;;;;;;;29.87;29.70;93995.88;5009301;28;7370;-56
2023/06/08 00:54:19;;;;;;;;;;;;;;;29.83;29.16;93997.50;5003836;28;8238;-56
2023/06/08 00:57:00;;;;;;;;;;;;;;;29.84;30.29;94002.50;5003303;28;7209;-56
2023/06/08 00:59:31;;;;;;;;;;;;;;;29.82;29.47;94005.06;5007319;28;8060;-56
2023/06/08 01:02:04;;;;;;;;;;;;;;;29.81;28.95;93995.28;5004467;28;9229;-56
2023/06/08 01:04:31;;;;;;;;;;;;;;;29.80;29.61;94002.13;5003101;28;8950;-56
2023/06/08 01:07:55;;;;;;;;;;;;;;;29.80;30.24;94004.88;5021452;28;9034;-56
2023/06/08 01:10:44;;;;;;;;;;;;;;;29.81;29.63;94000.84;4987126;28;7040;-56
2023/06/08 01:13:50;;;;;;;;;;;;;;;29.80;29.00;94005.63;4981007;28;8891;-57
2023/06/08 01:16:19;;;;;;;;;;;;;;;29.78;29.05;94001.91;4944652;28;8986;-56
2023/06/08 01:18:47;;;;;;;;;;;;;;;29.76;29.21;93994.16;4943878;28;7333;-56
2023/06/08 01:21:24;;;;;;;;;;;;;;;29.76;29.87;93999.69;4945851;28;8930;-57
2023/06/08 01:24:12;;;;;;;;;;;;;;;29.75;30.12;93997.50;4958930;28;7026;-57
2023/06/08 01:26:51;;;;;;;;;;;;;;;29.74;29.59;94002.28;4961528;28;7040;-56
2023/06/08 01:29:33;;;;;;;;;;;;;;;29.72;29.12;93998.53;4965090;28;7050;-56
2023/06/08 01:32:37;;;;;;;;;;;;;;;29.73;29.54;94000.03;4966685;28;8772;-56
2023/06/08 01:35:36;;;;;;;;;;;;;;;29.73;29.25;94000.03;4953168;28;7211;-56
2023/06/08 01:38:17;;;;;;;;;;;;;;;29.73;29.35;94003.53;4926590;29;7319;-56
2023/06/08 01:40:52;;;;;;;;;;;;;;;29.72;29.72;93993.00;4911506;29;9004;-56
2023/06/08 01:43:35;;;;;;;;;;;;;;;29.70;30.17;93990.03;4912481;29;9422;-57
2023/06/08 01:46:15;;;;;;;;;;;;;;;29.69;29.17;93996.84;4921703;29;8707;-57
2023/06/08 01:48:59;;;;;;;;;;;;;;;29.66;30.20;93982.09;4910834;29;9078;-56
2023/06/08 01:52:02;;;;;;;;;;;;;;;29.68;29.15;93996.13;4908091;29;7284;-56
2023/06/08 01:54:30;;;;;;;;;;;;;;;29.67;29.34;93985.56;4911681;29;9116;-57
2023/06/08 01:57:46;;;;;;;;;;;;;;;29.67;29.93;93982.81;4909381;29;7411;-56
2023/06/08 02:00:40;;;;;;;;;;;;;;;29.67;29.33;93986.31;4908049;29;7243;-57
2023/06/08 02:03:07;;;;;;;;;;;;;;;29.64;29.45;93978.38;4894336;29;9211;-57
2023/06/08 02:05:44;;;;;;;;;;;;;;;29.64;29.64;93978.38;4904591;29;9367;-57
2023/06/08 02:08:10;;;;;;;;;;;;;;;29.63;29.77;93983.16;4906898;29;8004;-57
2023/06/08 02:10:49;;;;;;;;;;;;;;;29.62;29.50;93978.19;4905675;29;7512;-57
2023/06/08 02:13:25;;;;;;;;;;;;;;;29.62;29.46;93983.72;4920166;28;7489;-56
2023/06/08 02:16:03;;;;;;;;;;;;;;;29.63;29.29;93990.75;4930781;28;9011;-56
2023/06/08 02:18:42;;;;;;;;;;;;;;;29.61;29.84;93988.53;4947896;28;7084;-56
2023/06/08 02:21:16;;;;;;;;;;;;;;;29.59;29.27;93990.34;4944043;28;7382;-56
2023/06/08 02:23:43;;;;;;;;;;;;;;;29.59;29.82;93991.09;4931282;28;8027;-56
2023/06/08 02:26:22;;;;;;;;;;;;;;;29.59;29.65;93993.13;4932031;28;7152;-56
2023/06/08 02:28:48;;;;;;;;;;;;;;;29.58;29.13;93991.66;4978940;28;7213;-56
2023/06/08 02:31:16;;;;;;;;;;;;;;;29.55;29.52;93985.16;5023260;28;7124;-56
2023/06/08 02:33:56;;;;;;;;;;;;;;;29.56;28.93;93997.72;4993025;28;7103;-56
2023/06/08 02:36:31;;;;;;;;;;;;;;;29.55;29.76;93995.50;5018411;28;7092;-56
2023/06/08 02:38:59;;;;;;;;;;;;;;;29.53;29.47;93993.28;5022542;28;8886;-56
2023/06/08 02:41:35;;;;;;;;;;;;;;;29.54;29.72;93997.53;5016672;28;8700;-56
2023/06/08 02:44:01;;;;;;;;;;;;;;;29.54;29.35;94005.84;5009633;28;7041;-56
2023/06/08 02:46:29;;;;;;;;;;;;;;;29.54;29.08;93996.78;5009889;28;8976;-56
2023/06/08 02:48:55;;;;;;;;;;;;;;;29.51;29.68;93990.31;5007326;28;7375;-55
2023/06/08 02:51:30;;;;;;;;;;;;;;;29.53;29.12;93995.31;5005724;28;7608;-56
2023/06/08 02:54:30;;;;;;;;;;;;;;;29.50;29.97;93991.59;5007005;28;9441;-56
2023/06/08 02:57:00;;;;;;;;;;;;;;;29.50;29.77;93996.41;5010087;28;7194;-56
2023/06/08 02:59:36;;;;;;;;;;;;;;;29.47;29.68;93994.75;5007860;28;7096;-56
2023/06/08 03:02:51;;;;;;;;;;;;;;;29.48;29.03;93993.44;5004861;28;7169;-56
2023/06/08 03:05:58;;;;;;;;;;;;;;;29.47;30.16;94000.28;5009397;28;7039;-56
2023/06/08 03:08:26;;;;;;;;;;;;;;;29.44;29.59;93996.56;5009023;28;7058;-56
2023/06/08 03:10:52;;;;;;;;;;;;;;;29.46;29.93;93999.53;5009261;28;9292;-56
2023/06/08 03:13:27;;;;;;;;;;;;;;;29.45;29.08;93998.03;5004763;28;6991;-56
2023/06/08 03:15:53;;;;;;;;;;;;;;;29.46;29.76;93996.00;5007172;28;7265;-56
2023/06/08 03:18:32;;;;;;;;;;;;;;;29.45;30.19;93998.03;5009748;28;7419;-57
2023/06/08 03:21:01;;;;;;;;;;;;;;;29.43;29.95;93999.88;5008387;28;9080;-56
2023/06/08 03:23:35;;;;;;;;;;;;;;;29.43;29.18;93994.31;5009588;28;7103;-55
2023/06/08 03:26:28;;;;;;;;;;;;;;;29.43;28.98;93997.09;5008121;28;7016;-56
2023/06/08 03:28:54;;;;;;;;;;;;;;;29.43;29.48;93994.31;5002383;28;7285;-55
2023/06/08 03:31:58;;;;;;;;;;;;;;;29.41;29.84;93997.66;5008918;28;7036;-55
2023/06/08 03:34:44;;;;;;;;;;;;;;;29.42;29.41;93995.63;4954130;28;7256;-56
2023/06/08 03:37:30;;;;;;;;;;;;;;;29.41;29.18;93997.66;4969294;28;7056;-56
2023/06/08 03:40:10;;;;;;;;;;;;;;;29.41;29.58;93991.34;4945604;28;7302;-56
2023/06/08 03:42:38;;;;;;;;;;;;;;;29.40;29.72;93989.88;4968595;28;8670;-56
2023/06/08 03:45:05;;;;;;;;;;;;;;;29.39;29.38;93991.16;4963798;28;9084;-56
2023/06/08 03:47:51;;;;;;;;;;;;;;;29.39;29.87;93991.16;4968317;28;8699;-56
2023/06/08 03:50:19;;;;;;;;;;;;;;;29.36;29.67;93984.69;4969207;28;8992;-56
2023/06/08 03:52:49;;;;;;;;;;;;;;;29.39;29.50;93985.63;4970389;28;7293;-56
2023/06/08 03:55:26;;;;;;;;;;;;;;;29.38;30.20;93987.66;4968149;28;7300;-56
2023/06/08 03:58:04;;;;;;;;;;;;;;;29.37;29.39;93982.66;4952497;28;7021;-56
2023/06/08 04:00:45;;;;;;;;;;;;;;;29.37;29.36;93996.50;4954402;28;7038;-56
2023/06/08 04:03:30;;;;;;;;;;;;;;;29.36;29.71;94000.59;4967514;28;9073;-56
2023/06/08 04:05:56;;;;;;;;;;;;;;;29.35;29.21;93993.53;4994368;28;8402;-56
2023/06/08 04:08:44;;;;;;;;;;;;;;;29.36;29.71;93997.81;5008325;28;9310;-56
2023/06/08 04:11:14;;;;;;;;;;;;;;;29.35;29.83;93994.28;5006359;28;7189;-56
2023/06/08 04:13:42;;;;;;;;;;;;;;;29.34;29.09;93992.78;5003242;28;9435;-56
2023/06/08 04:16:11;;;;;;;;;;;;;;;29.34;29.61;93997.63;5003931;28;7075;-56
2023/06/08 04:18:57;;;;;;;;;;;;;;;29.30;29.33;93992.41;5004093;28;7864;-56
2023/06/08 04:21:26;;;;;;;;;;;;;;;29.32;29.96;93995.38;5023656;28;6929;-56
2023/06/08 04:24:00;;;;;;;;;;;;;;;29.29;29.93;93996.47;5016256;28;7008;-55
2023/06/08 04:26:37;;;;;;;;;;;;;;;29.30;29.86;93995.19;5007250;28;7231;-55
2023/06/08 04:29:05;;;;;;;;;;;;;;;29.30;29.21;93994.44;5006571;28;8808;-56
2023/06/08 04:31:35;;;;;;;;;;;;;;;29.30;29.21;93997.19;5000586;28;7118;-55
2023/06/08 04:34:26;;;;;;;;;;;;;;;29.28;30.65;94008.09;5020615;28;8090;-55
2023/06/08 04:37:38;;;;;;;;;;;;;;;29.28;30.22;94006.06;5009595;28;7302;-55
2023/06/08 04:40:06;;;;;;;;;;;;;;;29.26;30.45;94013.44;4987797;28;7052;-55
2023/06/08 04:42:38;;;;;;;;;;;;;;;29.25;29.67;94009.19;4988360;28;7302;-55
2023/06/08 04:45:07;;;;;;;;;;;;;;;29.28;29.23;94016.41;4996073;28;9019;-55
2023/06/08 04:47:40;;;;;;;;;;;;;;;29.26;30.43;94011.41;5000462;28;7042;-55
2023/06/08 04:50:45;;;;;;;;;;;;;;;29.29;29.94;94012.34;5000492;28;7179;-55
2023/06/08 04:53:21;;;;;;;;;;;;;;;29.28;30.44;94010.84;4948734;28;9292;-55
2023/06/08 04:56:02;;;;;;;;;;;;;;;29.26;29.75;94016.94;4951967;28;8618;-57
2023/06/08 04:58:29;;;;;;;;;;;;;;;29.25;30.25;94015.47;4947731;28;7679;-56
2023/06/08 05:00:56;;;;;;;;;;;;;;;29.26;30.29;94018.97;4959992;28;8343;-57
2023/06/08 05:03:24;;;;;;;;;;;;;;;29.25;29.27;94023.03;4950235;28;7242;-57
2023/06/08 05:05:50;;;;;;;;;;;;;;;29.26;30.37;94021.75;4962544;28;9452;-57
2023/06/08 05:08:17;;;;;;;;;;;;;;;29.27;30.44;94028.78;4948783;28;7359;-57
2023/06/08 05:10:44;;;;;;;;;;;;;;;29.25;30.14;94029.31;4946466;28;9206;-57
2023/06/08 05:13:25;;;;;;;;;;;;;;;29.25;30.11;94025.81;4952799;28;7256;-56
2023/06/08 05:15:58;;;;;;;;;;;;;;;29.27;30.36;94035.06;4945680;28;7386;-56
2023/06/08 05:18:29;;;;;;;;;;;;;;;29.27;30.82;94023.97;4926339;29;7109;-57
2023/06/08 05:20:56;;;;;;;;;;;;;;;29.28;30.99;94025.44;4924629;29;8714;-57
2023/06/08 05:23:39;;;;;;;;;;;;;;;29.31;32.03;94024.38;4915209;29;7026;-57
2023/06/08 05:26:22;;;;;;;;;;;;;;;29.32;31.66;94022.34;4922445;29;7129;-57
2023/06/08 05:28:48;;;;;;;;;;;;;;;29.31;31.66;94021.59;4974084;28;8761;-57
2023/06/08 05:31:40;;;;;;;;;;;;;;;29.32;31.85;94027.91;5013747;28;7225;-57
2023/06/08 05:34:17;;;;;;;;;;;;;;;29.32;32.08;94028.63;5006532;28;9545;-56
2023/06/08 05:36:50;;;;;;;;;;;;;;;29.34;31.08;94026.03;5006158;28;9274;-56
2023/06/08 05:39:17;;;;;;;;;;;;;;;29.33;31.51;94016.25;5025481;28;7125;-57
2023/06/08 05:46:07;;;;;;;;;;;;;;;29.33;31.45;94016.25;4969251;28;8893;-57
2023/06/08 05:48:45;;;;;;;;;;;;;;;29.32;31.85;94019.59;4915628;29;8769;-56
2023/06/08 05:51:12;;;;;;;;;;;;;;;29.35;31.92;94026.78;4914421;29;9071;-56
2023/06/08 05:53:49;;;;;;;;;;;;;;;29.34;31.77;94033.63;4914055;29;9337;-57
2023/06/08 05:56:17;;;;;;;;;;;;;;;29.35;31.54;94033.06;4925377;29;7124;-56
2023/06/08 05:58:44;;;;;;;;;;;;;;;29.35;31.23;94032.31;4927364;29;7239;-57
2023/06/08 06:01:23;;;;;;;;;;;;;;;29.31;32.07;94018.09;4928863;29;9108;-56
2023/06/08 06:04:27;;;;;;;;;;;;;;;29.36;31.37;94028.28;4914572;29;7904;-56
2023/06/08 06:06:55;;;;;;;;;;;;;;;29.35;31.74;94029.56;4933536;29;9022;-56
2023/06/08 06:09:28;;;;;;;;;;;;;;;29.36;31.89;94028.28;4930349;29;7073;-57
2023/06/08 06:11:55;;;;;;;;;;;;;;;29.35;32.06;94027.53;4933076;29;9321;-56
2023/06/08 06:14:23;;;;;;;;;;;;;;;29.36;32.00;94022.75;4920217;29;9398;-57
2023/06/08 06:16:58;;;;;;;;;;;;;;;29.34;31.38;94023.28;4919330;29;7174;-57
2023/06/08 06:19:26;;;;;;;;;;;;;;;29.33;31.96;94018.28;4955400;28;7171;-56
2023/06/08 06:22:12;;;;;;;;;;;;;;;29.33;31.79;94024.56;4958927;28;8955;-57
2023/06/08 06:24:44;;;;;;;;;;;;;;;29.31;32.01;94020.84;4958688;28;7254;-56
2023/06/08 06:27:23;;;;;;;;;;;;;;;29.33;31.96;94027.34;5008187;28;7224;-57
2023/06/08 06:29:50;;;;;;;;;;;;;;;29.32;32.00;94027.91;5011929;28;7044;-56
2023/06/08 06:32:18;;;;;;;;;;;;;;;29.33;32.48;94032.13;5008837;28;9163;-57
2023/06/08 06:34:53;;;;;;;;;;;;;;;29.34;31.70;94033.63;5005331;28;7272;-56
2023/06/08 06:37:23;;;;;;;;;;;;;;;29.35;31.62;94027.53;5022365;28;7303;-57
2023/06/08 06:40:06;;;;;;;;;;;;;;;29.35;31.53;94021.25;5006358;28;7138;-57
2023/06/08 06:42:37;;;;;;;;;;;;;;;29.36;31.42;94023.47;5008633;28;7593;-57
2023/06/08 06:45:39;;;;;;;;;;;;;;;29.37;31.73;94024.22;5022819;28;9445;-56
2023/06/08 06:48:21;;;;;;;;;;;;;;;29.34;32.26;94025.31;5009670;28;7159;-56
2023/06/08 06:51:12;;;;;;;;;;;;;;;29.39;31.64;94036.25;5018677;28;7421;-57
2023/06/08 06:53:54;;;;;;;;;;;;;;;29.38;32.39;94034.78;5001606;28;7306;-56
2023/06/08 06:56:27;;;;;;;;;;;;;;;29.38;31.74;94032.00;5023090;28;7133;-56
2023/06/08 06:58:53;;;;;;;;;;;;;;;29.39;31.41;94038.25;5012289;28;7427;-57
2023/06/08 07:01:31;;;;;;;;;;;;;;;29.39;31.22;94046.56;5011957;28;6854;-56
2023/06/08 07:04:18;;;;;;;;;;;;;;;29.41;32.09;94044.00;5006515;28;7318;-56
2023/06/08 07:06:57;;;;;;;;;;;;;;;29.41;31.54;94035.69;5007528;28;7266;-57
2023/06/08 07:09:24;;;;;;;;;;;;;;;29.42;32.14;94037.19;5004562;28;7245;-56
2023/06/08 07:11:59;;;;;;;;;;;;;;;29.41;31.89;94030.91;5019402;28;7326;-56
2023/06/08 07:14:43;;;;;;;;;;;;;;;29.43;32.09;94035.88;5026596;28;7253;-56
2023/06/08 07:17:22;;;;;;;;;;;;;;;29.45;31.56;94030.56;5005487;28;7240;-57
2023/06/08 07:20:00;;;;;;;;;;;;;;;29.42;31.96;94035.16;5011054;28;7030;-57
2023/06/08 07:22:36;;;;;;;;;;;;;;;29.44;31.47;94029.06;5026968;28;9012;-56
2023/06/08 07:25:30;;;;;;;;;;;;;;;29.43;31.61;94033.13;5019475;28;7039;-56
2023/06/08 07:27:57;;;;;;;;;;;;;;;29.41;31.85;94030.16;5019676;28;7311;-57
2023/06/08 07:30:24;;;;;;;;;;;;;;;29.40;31.38;94031.44;4989270;28;7184;-57
2023/06/08 07:33:00;;;;;;;;;;;;;;;29.42;32.43;94032.38;5003667;28;9075;-57
2023/06/08 07:35:28;;;;;;;;;;;;;;;29.42;32.22;94028.88;4989554;28;7048;-57
2023/06/08 07:38:14;;;;;;;;;;;;;;;29.44;31.44;94027.03;5022976;28;9402;-57
2023/06/08 07:41:08;;;;;;;;;;;;;;;29.46;32.08;94026.50;5021573;28;7307;-56
2023/06/08 07:43:36;;;;;;;;;;;;;;;29.45;31.55;94025.03;5020992;28;7292;-56
2023/06/08 07:46:05;;;;;;;;;;;;;;;29.44;31.31;94027.03;5015994;28;7081;-57
2023/06/08 07:48:31;;;;;;;;;;;;;;;29.39;31.54;94014.06;4983349;28;8362;-56
2023/06/08 07:51:00;;;;;;;;;;;;;;;29.45;32.08;94025.75;4982119;28;8588;-57
2023/06/08 07:53:37;;;;;;;;;;;;;;;29.46;32.00;94032.03;4975317;28;8496;-57
2023/06/08 07:56:08;;;;;;;;;;;;;;;29.46;31.25;94027.25;4999529;28;8166;-56
2023/06/08 07:58:34;;;;;;;;;;;;;;;29.45;31.67;94025.75;4984642;28;8908;-57
2023/06/08 08:01:13;;;;;;;;;;;;;;;29.45;32.20;94022.25;5019026;28;6983;-57
2023/06/08 08:03:40;;;;;;;;;;;;;;;29.48;31.93;94021.88;4987293;28;9041;-57
2023/06/08 08:06:07;;;;;;;;;;;;;;;29.48;32.20;94015.59;5026266;28;7047;-56
2023/06/08 08:09:07;;;;;;;;;;;;;;;29.46;32.31;94015.41;5003733;28;7016;-57
2023/06/08 08:11:53;;;;;;;;;;;;;;;29.48;32.30;94021.88;5010918;28;7061;-56
2023/06/08 08:14:46;;;;;;;;;;;;;;;29.49;31.78;94028.19;5002225;28;9350;-56
2023/06/08 08:17:36;;;;;;;;;;;;;;;29.48;31.72;94021.16;5011792;28;9022;-57
2023/06/08 08:20:10;;;;;;;;;;;;;;;29.46;32.38;94015.41;5009950;28;6965;-56
2023/06/08 08:23:06;;;;;;;;;;;;;;;29.47;31.65;94017.63;5011736;28;7131;-57
2023/06/08 08:25:53;;;;;;;;;;;;;;;29.48;32.01;94024.66;5011296;28;7214;-57
2023/06/08 08:28:44;;;;;;;;;;;;;;;29.50;31.98;94018.56;4988174;28;7226;-56
2023/06/08 08:31:11;;;;;;;;;;;;;;;29.50;31.81;94021.34;5008442;28;8733;-57
2023/06/08 08:33:45;;;;;;;;;;;;;;;29.50;31.77;94010.25;4995658;28;9329;-56
2023/06/08 08:36:16;;;;;;;;;;;;;;;29.51;32.12;94017.28;4991585;28;7223;-56
2023/06/08 08:39:11;;;;;;;;;;;;;;;29.52;31.77;94016.00;4993859;28;7132;-56
2023/06/08 08:41:40;;;;;;;;;;;;;;;29.51;32.29;94017.28;5010865;28;7238;-56
2023/06/08 08:44:21;;;;;;;;;;;;;;;29.52;32.13;94018.75;5001101;28;7298;-56
2023/06/08 08:47:24;;;;;;;;;;;;;;;29.51;31.67;94017.28;5013732;28;8595;-56
2023/06/08 08:50:09;;;;;;;;;;;;;;;29.51;31.84;94006.22;4985216;28;7809;-56
2023/06/08 08:52:39;;;;;;;;;;;;;;;29.52;32.41;94016.00;4970062;28;9044;-56
2023/06/08 08:55:10;;;;;;;;;;;;;;;29.54;32.06;94013.41;4994610;28;8656;-56
2023/06/08 08:57:42;;;;;;;;;;;;;;;29.53;31.94;94014.72;4984409;28;9055;-56
2023/06/08 09:00:40;;;;;;;;;;;;;;;29.54;32.05;94014.16;5000791;28;6869;-57
2023/06/08 09:03:16;;;;;;;;;;;;;;;29.55;31.26;94006.59;4926509;28;7042;-56
2023/06/08 09:06:00;;;;;;;;;;;;;;;29.55;31.64;94007.34;4927433;29;7043;-56
2023/06/08 09:08:44;;;;;;;;;;;;;;;29.56;31.97;94008.81;4941424;28;8722;-56
2023/06/08 09:11:29;;;;;;;;;;;;;;;29.56;32.53;94008.81;4940803;28;7658;-56
2023/06/08 09:14:13;;;;;;;;;;;;;;;29.58;32.30;94005.50;4943589;28;7707;-56
2023/06/08 09:16:50;;;;;;;;;;;;;;;29.58;32.40;94000.69;4926084;29;9027;-57
2023/06/08 09:19:51;;;;;;;;;;;;;;;29.58;31.52;93995.16;4927734;28;9031;-56
2023/06/08 09:22:31;;;;;;;;;;;;;;;29.59;32.08;93995.91;4924078;29;7062;-56
2023/06/08 09:25:09;;;;;;;;;;;;;;;29.60;31.62;93991.84;4927101;28;9599;-56
2023/06/08 09:27:49;;;;;;;;;;;;;;;29.59;32.54;93995.91;4933785;28;9477;-57
2023/06/08 09:30:24;;;;;;;;;;;;;;;29.60;32.55;93998.13;4925195;29;7107;-56
2023/06/08 09:32:52;;;;;;;;;;;;;;;29.59;32.33;93991.09;4943541;29;7046;-56
2023/06/08 09:35:26;;;;;;;;;;;;;;;29.61;32.49;93987.78;4929526;29;7259;-57
2023/06/08 09:37:54;;;;;;;;;;;;;;;29.56;32.27;93985.88;4929238;29;7279;-56
2023/06/08 09:40:37;;;;;;;;;;;;;;;29.58;31.78;93989.59;4995528;28;8782;-56
2023/06/08 09:43:38;;;;;;;;;;;;;;;29.60;32.52;93986.31;5003840;28;7072;-57
2023/06/08 09:46:05;;;;;;;;;;;;;;;29.59;32.66;93985.56;5003770;28;9134;-56
2023/06/08 09:48:33;;;;;;;;;;;;;;;29.62;31.69;93983.72;5018088;28;8678;-56
2023/06/08 09:51:00;;;;;;;;;;;;;;;29.60;32.53;93978.00;5009867;28;7232;-57
2023/06/08 09:53:34;;;;;;;;;;;;;;;29.62;32.31;93973.34;5009757;28;9086;-56
2023/06/08 09:56:05;;;;;;;;;;;;;;;29.64;32.31;93986.69;4999271;28;8752;-57
2023/06/08 09:58:38;;;;;;;;;;;;;;;29.64;31.96;93976.34;5000186;28;9028;-56
2023/06/08 10:01:09;;;;;;;;;;;;;;;29.66;32.28;93979.31;5013787;28;9025;-56
2023/06/08 10:03:39;;;;;;;;;;;;;;;29.69;32.51;93977.44;5008581;28;7113;-56
2023/06/08 10:06:21;;;;;;;;;;;;;;;29.69;32.20;93971.91;5014226;28;7292;-55
2023/06/08 10:09:00;;;;;;;;;;;;;;;29.71;32.02;93977.66;5002826;28;8779;-55
2023/06/08 10:11:39;;;;;;;;;;;;;;;29.72;32.82;93970.81;5004699;28;9030;-55
2023/06/08 10:14:08;;;;;;;;;;;;;;;29.73;32.83;93977.88;5003159;28;7028;-55
2023/06/08 10:16:37;;;;;;;;;;;;;;;29.73;32.48;93970.25;5002666;28;9497;-55
2023/06/08 10:19:13;;;;;;;;;;;;;;;29.71;32.70;93958.28;5002797;28;7838;-55
2023/06/08 10:21:48;;;;;;;;;;;;;;;29.74;32.93;93971.03;5013574;28;8605;-56
2023/06/08 10:24:48;;;;;;;;;;;;;;;29.78;32.96;93963.09;5003313;28;8721;-55
2023/06/08 10:27:33;;;;;;;;;;;;;;;29.77;32.97;93970.69;4985053;28;7032;-56
2023/06/08 10:30:04;;;;;;;;;;;;;;;29.76;32.90;93960.16;4986865;28;7096;-56
2023/06/08 10:32:42;;;;;;;;;;;;;;;29.78;32.80;93960.34;4963657;28;7096;-56
2023/06/08 10:35:32;;;;;;;;;;;;;;;29.79;32.93;93961.84;4981091;28;7413;-56
2023/06/08 10:38:23;;;;;;;;;;;;;;;29.79;33.65;93953.50;4979479;28;9126;-56
2023/06/08 10:40:54;;;;;;;;;;;;;;;29.77;32.75;93953.31;4968958;28;8833;-56
2023/06/08 10:43:27;;;;;;;;;;;;;;;29.77;33.60;93950.56;4976126;28;9186;-55
2023/06/08 10:46:03;;;;;;;;;;;;;;;29.78;33.01;93940.94;4980554;28;7221;-56
2023/06/08 10:48:38;;;;;;;;;;;;;;;29.81;33.36;93942.63;4969149;28;7357;-56
2023/06/08 10:51:43;;;;;;;;;;;;;;;29.84;32.10;93938.72;4986983;28;7777;-57
2023/06/08 10:54:22;;;;;;;;;;;;;;;29.84;33.20;93949.81;4937518;28;7411;-57
2023/06/08 10:57:04;;;;;;;;;;;;;;;29.87;32.32;93937.63;4938115;28;7044;-56
2023/06/08 10:59:34;;;;;;;;;;;;;;;29.88;33.01;93933.59;4938907;28;8231;-56
2023/06/08 11:02:03;;;;;;;;;;;;;;;29.88;33.06;93928.03;4953803;28;7496;-57
2023/06/08 11:04:31;;;;;;;;;;;;;;;29.89;32.62;93929.50;4933233;28;8808;-57
2023/06/08 11:07:01;;;;;;;;;;;;;;;29.90;33.41;93925.47;4948414;28;7019;-57
2023/06/08 11:09:30;;;;;;;;;;;;;;;29.90;32.67;93919.91;4949545;28;7242;-56
2023/06/08 11:11:56;;;;;;;;;;;;;;;29.93;33.04;93929.88;4949058;28;9348;-56
2023/06/08 11:14:22;;;;;;;;;;;;;;;29.95;32.47;93926.56;4932713;28;7280;-57
2023/06/08 11:16:50;;;;;;;;;;;;;;;29.95;33.05;93921.75;4933714;28;9060;-57
2023/06/08 11:19:18;;;;;;;;;;;;;;;29.97;33.27;93927.47;4949349;28;9173;-57
2023/06/08 11:21:50;;;;;;;;;;;;;;;29.99;33.61;93926.94;4933822;28;6989;-57
2023/06/08 11:24:17;;;;;;;;;;;;;;;30.00;33.36;93920.84;4932705;28;8245;-57
2023/06/08 11:26:44;;;;;;;;;;;;;;;30.02;33.89;93921.03;4950834;28;9132;-57
2023/06/08 11:29:10;;;;;;;;;;;;;;;30.00;33.97;93918.06;4933062;28;7490;-57
2023/06/08 11:31:41;;;;;;;;;;;;;;;30.00;33.29;93920.84;5004831;28;9192;-57
2023/06/08 11:34:15;;;;;;;;;;;;;;;30.02;34.21;93915.47;5004697;28;7005;-57
2023/06/08 11:36:48;;;;;;;;;;;;;;;30.04;33.94;93917.69;5006346;28;7534;-57
2023/06/08 11:39:16;;;;;;;;;;;;;;;30.02;32.91;93909.94;4999906;28;9431;-57
2023/06/08 11:41:46;;;;;;;;;;;;;;;30.03;34.05;93905.88;5000795;28;9106;-57
2023/06/08 11:44:17;;;;;;;;;;;;;;;30.07;33.62;93899.97;5016279;28;8851;-57
2023/06/08 11:46:47;;;;;;;;;;;;;;;30.08;33.57;93901.47;5000184;28;7264;-57
2023/06/08 11:49:15;;;;;;;;;;;;;;;30.10;33.54;93901.66;5000673;28;7213;-56
2023/06/08 11:51:50;;;;;;;;;;;;;;;30.11;33.26;93901.09;5004043;28;8756;-56
2023/06/08 11:54:17;;;;;;;;;;;;;;;30.10;34.00;93901.66;5003309;28;8865;-57
2023/06/08 11:56:49;;;;;;;;;;;;;;;30.14;33.18;93893.69;5000575;28;7196;-57
2023/06/08 11:59:16;;;;;;;;;;;;;;;30.15;33.52;93892.38;5012808;28;8899;-57
2023/06/08 12:02:02;;;;;;;;;;;;;;;30.15;33.90;93890.34;4998512;28;7531;-57
2023/06/08 12:04:31;;;;;;;;;;;;;;;30.19;34.17;93892.78;5006850;28;9059;-57
2023/06/08 12:07:07;;;;;;;;;;;;;;;30.20;33.90;93885.94;5023370;28;7915;-57
2023/06/08 12:09:33;;;;;;;;;;;;;;;30.22;33.06;93883.34;5006950;28;7377;-57
2023/06/08 12:12:10;;;;;;;;;;;;;;;30.20;33.55;93877.59;5007115;28;7139;-57
2023/06/08 12:14:48;;;;;;;;;;;;;;;30.24;33.55;93884.28;5020541;28;7046;-57
2023/06/08 12:17:15;;;;;;;;;;;;;;;30.25;33.02;93865.59;5018587;28;7473;-57
2023/06/08 12:19:45;;;;;;;;;;;;;;;30.25;33.47;93862.81;5006154;28;7382;-57
2023/06/08 12:22:15;;;;;;;;;;;;;;;30.25;32.68;93860.78;5006071;28;8776;-57
2023/06/08 12:24:42;;;;;;;;;;;;;;;30.26;32.73;93865.03;4999589;28;7283;-58
2023/06/08 12:27:19;;;;;;;;;;;;;;;30.27;33.32;93863.75;5026875;28;7462;-57
2023/06/08 12:29:54;;;;;;;;;;;;;;;30.30;33.16;93864.66;5004453;28;7462;-57
2023/06/08 12:32:27;;;;;;;;;;;;;;;30.32;33.03;93864.91;5007620;28;7060;-57
2023/06/08 12:35:05;;;;;;;;;;;;;;;30.31;33.66;93866.91;5006980;28;7086;-57
2023/06/08 12:37:39;;;;;;;;;;;;;;;30.30;33.80;93861.88;5021537;28;7414;-57
2023/06/08 12:40:07;;;;;;;;;;;;;;;30.32;33.75;93867.66;5026265;28;7159;-57
2023/06/08 12:42:39;;;;;;;;;;;;;;;30.32;32.81;93862.84;5020023;28;6999;-57
2023/06/08 12:45:17;;;;;;;;;;;;;;;30.35;33.74;93850.63;5009891;28;8215;-57
2023/06/08 12:47:44;;;;;;;;;;;;;;;30.32;33.44;93854.50;5011473;28;8972;-57
2023/06/08 12:50:17;;;;;;;;;;;;;;;30.36;33.18;93857.66;5007110;28;7106;-57
2023/06/08 12:52:46;;;;;;;;;;;;;;;30.38;33.46;93851.56;5008893;28;7066;-57
2023/06/08 12:55:14;;;;;;;;;;;;;;;30.36;32.86;93848.59;5006965;28;9449;-57
2023/06/08 12:57:43;;;;;;;;;;;;;;;30.37;33.66;93850.06;5011997;28;8712;-57
2023/06/08 13:00:12;;;;;;;;;;;;;;;30.39;33.55;93847.47;5008894;28;7418;-57
2023/06/08 13:02:52;;;;;;;;;;;;;;;30.39;33.64;93847.47;5017046;28;7112;-57
2023/06/08 13:05:45;;;;;;;;;;;;;;;30.40;32.80;93848.97;5017069;28;7318;-57
2023/06/08 13:08:21;;;;;;;;;;;;;;;30.38;33.42;93835.63;5009363;28;7310;-57
2023/06/08 13:10:49;;;;;;;;;;;;;;;30.41;34.05;93844.88;5022326;28;9310;-57
2023/06/08 13:13:22;;;;;;;;;;;;;;;30.39;33.09;93842.69;5006131;28;7544;-57
2023/06/08 13:15:53;;;;;;;;;;;;;;;30.42;33.26;93846.38;5004501;28;8348;-57
2023/06/08 13:18:26;;;;;;;;;;;;;;;30.43;33.32;93840.25;5001492;28;9034;-57
2023/06/08 13:21:24;;;;;;;;;;;;;;;30.42;33.11;93836.03;5004810;28;7464;-57
2023/06/08 13:24:03;;;;;;;;;;;;;;;30.42;32.82;93838.06;5006731;28;7148;-57
2023/06/08 13:26:39;;;;;;;;;;;;;;;30.40;33.26;93838.63;5003755;28;8832;-57
2023/06/08 13:29:07;;;;;;;;;;;;;;;30.42;33.27;93843.59;5009208;28;7429;-57
2023/06/08 13:31:36;;;;;;;;;;;;;;;30.42;32.81;93836.03;5016303;28;7036;-57
2023/06/08 13:34:40;;;;;;;;;;;;;;;30.42;32.81;93830.47;5017136;28;7017;-57
2023/06/08 13:37:20;;;;;;;;;;;;;;;30.42;33.30;93833.25;5008207;28;9000;-58
2023/06/08 13:39:55;;;;;;;;;;;;;;;30.40;32.87;93819.19;5002049;28;7013;-57
2023/06/08 13:42:22;;;;;;;;;;;;;;;30.41;32.66;93815.09;4998626;28;7081;-57
2023/06/08 13:45:15;;;;;;;;;;;;;;;30.41;33.39;93823.44;5003614;28;7337;-57
2023/06/08 13:47:50;;;;;;;;;;;;;;;30.42;33.58;93807.53;4972498;28;7145;-57
2023/06/08 13:50:17;;;;;;;;;;;;;;;30.43;33.18;93809.75;4974412;28;8875;-57